createdAt,value
2022-12-10T00:01:26.202Z,71.03
2022-12-10T00:03:53.186Z,71.37
2022-12-10T00:06:22.125Z,71.76
2022-12-10T00:08:48.561Z,71.23
2022-12-10T00:11:16.455Z,71.10
2022-12-10T00:13:44.068Z,70.41
2022-12-10T00:16:12.359Z,71.14
2022-12-10T00:18:39.171Z,71.66
2022-12-10T00:21:12.602Z,70.77
2022-12-10T00:23:39.912Z,71.12
2022-12-10T00:26:08.650Z,71.24
2022-12-10T00:28:35.804Z,71.10
2022-12-10T00:31:20.244Z,71.18
2022-12-10T00:33:47.269Z,71.44
2022-12-10T00:36:19.398Z,71.24
2022-12-10T00:38:46.923Z,71.65
2022-12-10T00:41:13.912Z,71.89
2022-12-10T00:43:40.720Z,71.84
2022-12-10T00:46:07.551Z,71.15
2022-12-10T00:48:34.300Z,71.01
2022-12-10T00:51:08.245Z,71.62
2022-12-10T00:53:36.838Z,71.40
2022-12-10T00:56:04.430Z,71.65
2022-12-10T00:58:33.436Z,71.01
2022-12-10T01:01:18.000Z,71.29
2022-12-10T01:03:45.903Z,71.78
2022-12-10T01:06:15.888Z,71.47
2022-12-10T01:08:43.443Z,71.60
2022-12-10T01:11:11.832Z,71.32
2022-12-10T01:13:39.317Z,71.46
2022-12-10T01:16:07.694Z,71.73
2022-12-10T01:18:35.582Z,71.58
2022-12-10T01:21:09.771Z,71.29
2022-12-10T01:23:38.572Z,71.82
2022-12-10T01:26:07.713Z,71.39
2022-12-10T01:28:36.316Z,72.05
2022-12-10T01:31:12.043Z,71.92
2022-12-10T01:33:40.293Z,71.68
2022-12-10T01:36:13.167Z,71.16
2022-12-10T01:38:39.757Z,71.52
2022-12-10T01:41:08.319Z,71.47
2022-12-10T01:43:58.601Z,72.26
2022-12-10T01:46:34.177Z,71.45
2022-12-10T01:49:03.366Z,72.04
2022-12-10T01:51:31.682Z,71.84
2022-12-10T01:53:58.904Z,71.78
2022-12-10T01:56:25.628Z,72.10
2022-12-10T01:58:56.013Z,72.11
2022-12-10T02:01:40.026Z,71.67
2022-12-10T02:04:27.574Z,71.85
2022-12-10T02:07:28.160Z,71.88
2022-12-10T02:10:20.691Z,72.16
2022-12-10T02:12:53.635Z,72.25
2022-12-10T02:15:25.412Z,71.89
2022-12-10T02:18:14.158Z,71.68
2022-12-10T02:21:05.293Z,71.46
2022-12-10T02:23:38.332Z,71.29
2022-12-10T02:26:27.484Z,71.13
2022-12-10T02:28:53.900Z,71.71
2022-12-10T02:31:26.430Z,71.04
2022-12-10T02:34:00.019Z,71.68
2022-12-10T02:36:30.880Z,71.58
2022-12-10T02:39:00.589Z,71.70
2022-12-10T02:41:31.378Z,72.08
2022-12-10T02:44:00.210Z,71.77
2022-12-10T02:46:30.750Z,71.42
2022-12-10T02:48:59.139Z,72.07
2022-12-10T02:51:25.826Z,71.73
2022-12-10T02:54:06.494Z,71.54
2022-12-10T02:56:53.343Z,71.67
2022-12-10T02:59:37.743Z,71.86
2022-12-10T03:02:16.494Z,71.92
2022-12-10T03:05:06.017Z,71.86
2022-12-10T03:07:42.746Z,72.23
2022-12-10T03:10:18.794Z,72.89
2022-12-10T03:12:50.544Z,72.62
2022-12-10T03:15:19.457Z,72.24
2022-12-10T03:17:48.341Z,72.60
2022-12-10T03:20:16.701Z,72.65
2022-12-10T03:22:46.746Z,72.80
2022-12-10T03:25:18.654Z,72.50
2022-12-10T03:27:47.614Z,72.26
2022-12-10T03:30:13.999Z,72.34
2022-12-10T03:32:40.474Z,72.15
2022-12-10T03:35:07.497Z,72.74
2022-12-10T03:37:35.336Z,72.09
2022-12-10T03:40:03.078Z,72.61
2022-12-10T03:42:29.568Z,71.99
2022-12-10T03:44:56.329Z,71.85
2022-12-10T03:47:24.248Z,71.68
2022-12-10T03:49:50.714Z,71.42
2022-12-10T03:52:17.161Z,71.34
2022-12-10T03:54:43.757Z,70.93
2022-12-10T03:57:10.249Z,71.91
2022-12-10T03:59:36.826Z,71.62
2022-12-10T04:02:04.165Z,71.16
2022-12-10T04:04:31.320Z,71.09
2022-12-10T04:06:57.841Z,71.62
2022-12-10T04:09:24.562Z,71.58
2022-12-10T04:11:51.040Z,71.19
2022-12-10T04:14:35.853Z,71.14
2022-12-10T04:17:02.481Z,70.59
2022-12-10T04:19:28.976Z,71.41
2022-12-10T04:22:13.991Z,71.21
2022-12-10T04:24:58.788Z,71.03
2022-12-10T04:27:32.011Z,71.77
2022-12-10T04:29:59.344Z,71.11
2022-12-10T04:32:27.812Z,70.98
2022-12-10T04:34:54.939Z,71.14
2022-12-10T04:37:21.834Z,71.31
2022-12-10T04:39:50.743Z,71.42
2022-12-10T04:42:18.175Z,71.66
2022-12-10T04:44:44.664Z,71.51
2022-12-10T04:47:12.429Z,71.03
2022-12-10T04:49:39.533Z,70.61
2022-12-10T04:52:07.856Z,70.34
2022-12-10T04:54:38.838Z,70.77
2022-12-10T04:57:05.912Z,71.18
2022-12-10T04:59:32.388Z,71.21
2022-12-10T05:01:58.930Z,70.74
2022-12-10T05:04:25.577Z,71.01
2022-12-10T05:06:52.071Z,70.94
2022-12-10T05:09:18.815Z,70.11
2022-12-10T05:11:45.438Z,70.57
2022-12-10T05:14:14.221Z,71.34
2022-12-10T05:16:41.151Z,70.83
2022-12-10T05:19:08.822Z,70.56
2022-12-10T05:21:53.654Z,70.45
2022-12-10T05:24:20.241Z,70.21
2022-12-10T05:26:47.486Z,69.37
2022-12-10T05:29:14.649Z,69.54
2022-12-10T05:31:41.226Z,69.94
2022-12-10T05:34:09.178Z,69.25
2022-12-10T05:36:35.806Z,69.97
2022-12-10T05:39:02.571Z,68.90
2022-12-10T05:41:31.447Z,69.54
2022-12-10T05:43:59.221Z,69.47
2022-12-10T05:46:31.170Z,69.54
2022-12-10T05:48:58.509Z,68.68
2022-12-10T05:51:28.398Z,69.34
2022-12-10T05:53:56.046Z,69.30
2022-12-10T05:56:24.758Z,69.67
2022-12-10T05:58:54.150Z,69.30
2022-12-10T06:01:23.878Z,68.39
2022-12-10T06:03:53.080Z,68.78
2022-12-10T06:06:31.491Z,68.24
2022-12-10T06:08:58.911Z,68.87
2022-12-10T06:11:27.421Z,68.49
2022-12-10T06:13:56.612Z,68.11
2022-12-10T06:16:24.229Z,68.20
2022-12-10T06:18:50.907Z,68.38
2022-12-10T06:21:18.578Z,67.53
2022-12-10T06:23:45.626Z,67.72
2022-12-10T06:26:15.534Z,67.20
2022-12-10T06:28:42.987Z,67.80
2022-12-10T06:31:09.531Z,68.43
2022-12-10T06:33:36.169Z,67.94
2022-12-10T06:36:06.991Z,67.79
2022-12-10T06:38:34.556Z,67.86
2022-12-10T06:41:01.310Z,67.97
2022-12-10T06:43:31.082Z,67.20
2022-12-10T06:45:57.742Z,67.54
2022-12-10T06:48:24.660Z,66.97
2022-12-10T06:50:51.241Z,67.15
2022-12-10T06:53:17.758Z,67.11
2022-12-10T06:55:44.170Z,67.54
2022-12-10T06:58:10.705Z,67.47
2022-12-10T07:00:37.180Z,67.18
2022-12-10T07:03:03.641Z,67.27
2022-12-10T07:05:30.094Z,67.09
2022-12-10T07:07:56.660Z,66.51
2022-12-10T07:10:23.505Z,66.44
2022-12-10T07:12:49.979Z,66.68
2022-12-10T07:15:16.691Z,67.50
2022-12-10T07:17:43.142Z,66.24
2022-12-10T07:20:10.585Z,66.41
2022-12-10T07:22:37.231Z,66.24
2022-12-10T07:25:04.482Z,66.16
2022-12-10T07:27:32.394Z,66.01
2022-12-10T07:29:59.082Z,65.34
2022-12-10T07:32:27.213Z,66.09
2022-12-10T07:34:53.649Z,65.86
2022-12-10T07:37:20.279Z,66.36
2022-12-10T07:39:46.720Z,66.53
2022-12-10T07:42:13.176Z,66.60
2022-12-10T07:44:39.694Z,66.79
2022-12-10T07:47:06.255Z,66.34
2022-12-10T07:49:32.799Z,65.83
2022-12-10T07:51:59.367Z,66.52
2022-12-10T07:54:25.817Z,65.87
2022-12-10T07:56:52.245Z,65.95
2022-12-10T07:59:18.918Z,65.86
2022-12-10T08:01:45.539Z,66.07
2022-12-10T08:04:12.056Z,65.60
2022-12-10T08:06:38.578Z,65.73
2022-12-10T08:09:05.068Z,65.59
2022-12-10T08:11:31.728Z,65.68
2022-12-10T08:13:58.169Z,65.98
2022-12-10T08:16:27.209Z,65.54
2022-12-10T08:18:59.044Z,65.22
2022-12-10T08:21:28.541Z,65.63
2022-12-10T08:23:55.822Z,64.42
2022-12-10T08:26:25.554Z,64.46
2022-12-10T08:28:53.086Z,64.78
2022-12-10T08:31:21.439Z,65.11
2022-12-10T08:33:47.924Z,65.25
2022-12-10T08:36:17.021Z,64.96
2022-12-10T08:38:44.581Z,64.80
2022-12-10T08:41:16.053Z,64.65
2022-12-10T08:43:43.411Z,64.32
2022-12-10T08:46:10.976Z,64.44
2022-12-10T08:48:38.397Z,65.07
2022-12-10T08:51:06.685Z,65.44
2022-12-10T08:53:33.889Z,65.31
2022-12-10T08:56:00.558Z,65.00
2022-12-10T08:58:27.597Z,64.62
2022-12-10T09:00:54.099Z,65.59
2022-12-10T09:03:20.571Z,65.36
2022-12-10T09:05:47.482Z,64.50
2022-12-10T09:08:14.222Z,64.65
2022-12-10T09:10:42.241Z,65.08
2022-12-10T09:13:08.855Z,64.37
2022-12-10T09:15:35.348Z,64.92
2022-12-10T09:18:01.940Z,65.05
2022-12-10T09:20:28.536Z,64.45
2022-12-10T09:22:54.980Z,64.77
2022-12-10T09:25:22.623Z,65.22
2022-12-10T09:27:49.624Z,64.61
2022-12-10T09:30:16.890Z,65.18
2022-12-10T09:32:43.540Z,65.83
2022-12-10T09:35:09.960Z,64.75
2022-12-10T09:37:36.374Z,65.04
2022-12-10T09:40:04.685Z,64.84
2022-12-10T09:43:11.341Z,64.22
2022-12-10T09:45:55.137Z,64.29
2022-12-10T09:48:30.988Z,64.25
2022-12-10T09:51:22.724Z,65.09
2022-12-10T09:53:49.391Z,64.33
2022-12-10T09:56:23.020Z,64.88
2022-12-10T09:58:50.331Z,65.01
2022-12-10T10:01:21.745Z,64.04
2022-12-10T10:03:49.090Z,64.32
2022-12-10T10:06:16.634Z,64.14
2022-12-10T10:08:53.815Z,64.44
2022-12-10T10:11:23.753Z,64.53
2022-12-10T10:13:59.179Z,65.05
2022-12-10T10:16:27.355Z,63.87
2022-12-10T10:19:07.140Z,64.67
2022-12-10T10:21:52.466Z,63.78
2022-12-10T10:24:43.365Z,64.39
2022-12-10T10:27:17.799Z,64.08
2022-12-10T10:29:46.673Z,64.01
2022-12-10T10:32:20.617Z,64.05
2022-12-10T10:34:53.781Z,64.21
2022-12-10T10:37:24.735Z,64.09
2022-12-10T10:39:52.195Z,63.65
2022-12-10T10:42:46.186Z,63.53
2022-12-10T10:45:31.279Z,63.61
2022-12-10T10:48:14.658Z,63.44
2022-12-10T10:50:45.669Z,63.80
2022-12-10T10:53:44.699Z,62.88
2022-12-10T10:56:21.566Z,62.92
2022-12-10T10:58:59.415Z,62.94
2022-12-10T11:01:43.612Z,63.43
2022-12-10T11:04:10.585Z,62.71
2022-12-10T11:06:37.419Z,62.76
2022-12-10T11:09:06.184Z,63.03
2022-12-10T11:11:37.052Z,63.36
2022-12-10T11:14:38.270Z,64.27
2022-12-10T11:17:19.464Z,63.87
2022-12-10T11:19:57.377Z,62.93
2022-12-10T11:22:31.096Z,63.32
2022-12-10T11:24:58.839Z,63.87
2022-12-10T11:28:00.480Z,64.31
2022-12-10T11:30:38.043Z,64.52
2022-12-10T11:33:20.567Z,65.09
2022-12-10T11:36:11.002Z,64.83
2022-12-10T11:39:03.359Z,65.25
2022-12-10T11:41:36.089Z,64.54
2022-12-10T11:44:22.033Z,64.42
2022-12-10T11:46:54.237Z,65.62
2022-12-10T11:49:33.780Z,64.72
2022-12-10T11:52:21.391Z,64.72
2022-12-10T11:55:16.138Z,65.03
2022-12-10T11:58:01.246Z,65.80
2022-12-10T12:00:40.822Z,65.98
2022-12-10T12:03:44.672Z,65.67
2022-12-10T12:06:51.773Z,65.49
2022-12-10T12:09:54.303Z,65.91
2022-12-10T12:12:32.814Z,66.01
2022-12-10T12:15:14.426Z,65.51
2022-12-10T12:17:44.689Z,65.29
2022-12-10T12:20:34.851Z,65.50
2022-12-10T12:23:12.199Z,66.15
2022-12-10T12:25:45.798Z,66.05
2022-12-10T12:28:15.913Z,65.58
2022-12-10T12:30:46.030Z,65.03
2022-12-10T12:33:30.322Z,65.62
2022-12-10T12:36:01.847Z,65.61
2022-12-10T12:38:33.084Z,66.23
2022-12-10T12:41:16.142Z,65.16
2022-12-10T12:43:50.508Z,65.94
2022-12-10T12:46:21.933Z,66.21
2022-12-10T12:48:51.339Z,66.22
2022-12-10T12:51:23.338Z,66.20
2022-12-10T12:53:49.835Z,65.87
2022-12-10T12:56:37.551Z,65.41
2022-12-10T12:59:03.915Z,66.07
2022-12-10T13:01:59.288Z,65.96
2022-12-10T13:04:27.091Z,65.68
2022-12-10T13:07:15.322Z,65.27
2022-12-10T13:09:47.238Z,65.65
2022-12-10T13:12:18.141Z,65.38
2022-12-10T13:14:53.265Z,66.25
2022-12-10T13:17:31.617Z,66.37
2022-12-10T13:20:29.044Z,66.28
2022-12-10T13:23:25.855Z,66.51
2022-12-10T13:25:56.226Z,66.03
2022-12-10T13:28:50.538Z,65.96
2022-12-10T13:31:17.015Z,66.03
2022-12-10T13:33:52.095Z,65.52
2022-12-10T13:36:25.882Z,66.27
2022-12-10T13:38:59.340Z,65.80
2022-12-10T13:41:44.150Z,66.99
2022-12-10T13:44:46.605Z,66.79
2022-12-10T13:47:13.019Z,66.06
2022-12-10T13:49:48.508Z,66.89
2022-12-10T13:52:23.589Z,66.34
2022-12-10T13:55:02.842Z,66.21
2022-12-10T13:58:11.061Z,66.03
2022-12-10T14:01:06.407Z,65.54
2022-12-10T14:04:02.306Z,66.57
2022-12-10T14:06:35.412Z,66.45
2022-12-10T14:09:05.256Z,65.94
2022-12-10T14:11:38.070Z,65.88
2022-12-10T14:14:11.457Z,66.04
2022-12-10T14:16:40.836Z,66.80
2022-12-10T14:19:13.300Z,66.81
2022-12-10T14:21:43.385Z,66.51
2022-12-10T14:24:34.621Z,66.62
2022-12-10T14:27:18.883Z,66.69
2022-12-10T14:29:50.541Z,66.53
2022-12-10T14:32:21.255Z,66.86
2022-12-10T14:34:53.441Z,66.85
2022-12-10T14:37:24.870Z,67.82
2022-12-10T14:39:51.727Z,67.12
2022-12-10T14:42:18.442Z,66.23
2022-12-10T14:44:46.825Z,66.53
2022-12-10T14:47:18.621Z,66.26
2022-12-10T14:49:48.247Z,66.35
2022-12-10T14:52:20.820Z,66.42
2022-12-10T14:54:49.063Z,66.93
2022-12-10T14:57:24.707Z,67.24
2022-12-10T14:59:53.367Z,66.59
2022-12-10T15:02:30.285Z,66.55
2022-12-10T15:04:58.279Z,66.46
2022-12-10T15:07:27.543Z,65.87
2022-12-10T15:09:55.490Z,66.06
2022-12-10T15:12:44.038Z,66.47
2022-12-10T15:15:38.313Z,66.33
2022-12-10T15:18:12.642Z,66.62
2022-12-10T15:20:51.978Z,66.94
2022-12-10T15:23:20.427Z,66.65
2022-12-10T15:26:14.098Z,66.91
2022-12-10T15:28:41.906Z,66.43
2022-12-10T15:31:26.650Z,66.45
2022-12-10T15:33:58.984Z,65.85
2022-12-10T15:36:34.358Z,66.33
2022-12-10T15:39:06.453Z,66.07
2022-12-10T15:41:54.419Z,66.69
2022-12-10T15:44:31.351Z,66.39
2022-12-10T15:47:03.829Z,66.21
2022-12-10T15:49:31.559Z,66.48
2022-12-10T15:51:58.335Z,66.16
2022-12-10T15:54:42.688Z,66.28
2022-12-10T15:57:15.377Z,65.88
2022-12-10T15:59:43.296Z,66.36
2022-12-10T16:02:41.493Z,66.26
2022-12-10T16:05:11.194Z,66.04
2022-12-10T16:07:37.951Z,66.53
2022-12-10T16:10:04.976Z,66.45
2022-12-10T16:12:37.296Z,65.67
2022-12-10T16:15:11.663Z,65.25
2022-12-10T16:17:38.095Z,65.96
2022-12-10T16:20:31.739Z,65.73
2022-12-10T16:22:59.588Z,65.72
2022-12-10T16:25:29.914Z,65.34
2022-12-10T16:27:59.037Z,65.26
2022-12-10T16:30:25.458Z,65.50
2022-12-10T16:32:53.245Z,65.91
2022-12-10T16:35:19.810Z,66.18
2022-12-10T16:37:49.903Z,65.86
2022-12-10T16:40:17.629Z,66.29
2022-12-10T16:42:44.471Z,65.85
2022-12-10T16:45:33.725Z,65.84
2022-12-10T16:48:00.264Z,66.27
2022-12-10T16:50:27.698Z,66.03
2022-12-10T16:52:55.991Z,66.39
2022-12-10T16:55:26.349Z,66.03
2022-12-10T16:57:54.529Z,65.86
2022-12-10T17:00:24.309Z,66.38
2022-12-10T17:02:52.477Z,66.14
2022-12-10T17:05:30.190Z,66.32
2022-12-10T17:07:56.764Z,66.48
2022-12-10T17:10:43.468Z,66.30
2022-12-10T17:13:14.587Z,67.13
2022-12-10T17:15:43.176Z,66.35
2022-12-10T17:18:14.249Z,66.27
2022-12-10T17:20:41.285Z,66.22
2022-12-10T17:23:07.857Z,66.21
2022-12-10T17:25:34.733Z,65.67
2022-12-10T17:28:01.446Z,65.81
2022-12-10T17:30:28.068Z,65.97
2022-12-10T17:32:54.696Z,66.35
2022-12-10T17:35:21.789Z,66.83
2022-12-10T17:37:51.324Z,66.19
2022-12-10T17:40:20.235Z,66.14
2022-12-10T17:42:46.908Z,65.71
2022-12-10T17:45:20.652Z,65.63
2022-12-10T17:47:48.794Z,66.02
2022-12-10T17:50:32.460Z,65.86
2022-12-10T17:53:00.243Z,66.12
2022-12-10T17:55:28.118Z,65.54
2022-12-10T17:57:57.907Z,65.93
2022-12-10T18:00:26.792Z,66.33
2022-12-10T18:02:53.234Z,66.41
2022-12-10T18:05:20.552Z,66.17
2022-12-10T18:07:47.106Z,65.90
2022-12-10T18:10:19.132Z,66.34
2022-12-10T18:12:46.274Z,66.55
2022-12-10T18:15:13.655Z,66.39
2022-12-10T18:17:40.401Z,66.89
2022-12-10T18:20:09.168Z,66.85
2022-12-10T18:22:36.648Z,66.86
2022-12-10T18:25:03.379Z,66.74
2022-12-10T18:27:30.190Z,67.22
2022-12-10T18:29:58.063Z,66.69
2022-12-10T18:32:24.565Z,67.21
2022-12-10T18:34:51.962Z,66.91
2022-12-10T18:37:18.398Z,67.40
2022-12-10T18:39:44.866Z,67.04
2022-12-10T18:42:11.279Z,66.80
2022-12-10T18:44:38.552Z,66.85
2022-12-10T18:47:06.262Z,66.48
2022-12-10T18:49:33.525Z,66.47
2022-12-10T18:51:59.992Z,66.28
2022-12-10T18:54:26.449Z,66.51
2022-12-10T18:57:24.381Z,65.85
2022-12-10T18:59:39.631Z,65.92
2022-12-10T19:02:06.405Z,66.80
2022-12-10T19:04:32.965Z,67.35
2022-12-10T19:06:59.513Z,67.17
2022-12-10T19:09:29.307Z,66.52
2022-12-10T19:11:59.049Z,67.06
2022-12-10T19:14:25.694Z,66.95
2022-12-10T19:16:52.124Z,66.31
2022-12-10T19:19:19.372Z,66.67
2022-12-10T19:21:46.700Z,67.36
2022-12-10T19:24:14.485Z,67.16
2022-12-10T19:26:42.859Z,66.73
2022-12-10T19:29:18.195Z,66.94
2022-12-10T19:31:46.172Z,66.36
2022-12-10T19:34:14.404Z,66.33
2022-12-10T19:36:41.663Z,66.70
2022-12-10T19:39:18.216Z,66.56
2022-12-10T19:41:44.865Z,66.62
2022-12-10T19:44:11.481Z,65.75
2022-12-10T19:46:38.402Z,66.25
2022-12-10T19:49:05.128Z,66.85
2022-12-10T19:51:31.663Z,66.40
2022-12-10T19:53:58.259Z,66.08
2022-12-10T19:56:30.031Z,67.44
2022-12-10T19:58:58.888Z,66.67
2022-12-10T20:01:27.366Z,66.74
2022-12-10T20:03:54.398Z,67.04
2022-12-10T20:06:29.280Z,67.17
2022-12-10T20:08:56.856Z,66.75
2022-12-10T20:11:23.442Z,66.60
2022-12-10T20:13:50.056Z,66.87
2022-12-10T20:16:18.954Z,66.84
2022-12-10T20:18:47.032Z,66.63
2022-12-10T20:21:14.173Z,66.57
2022-12-10T20:23:40.886Z,66.65
2022-12-10T20:26:16.664Z,66.77
2022-12-10T20:28:44.079Z,66.82
2022-12-10T20:31:10.894Z,66.61
2022-12-10T20:33:46.370Z,65.71
2022-12-10T20:36:17.933Z,66.78
2022-12-10T20:38:44.708Z,66.10
2022-12-10T20:41:12.742Z,66.42
2022-12-10T20:43:41.049Z,66.04
2022-12-10T20:46:35.076Z,65.72
2022-12-10T20:49:01.625Z,65.79
2022-12-10T20:51:28.335Z,65.52
2022-12-10T20:53:54.749Z,65.53
2022-12-10T20:56:24.398Z,64.81
2022-12-10T20:58:51.645Z,65.28
2022-12-10T21:01:19.077Z,66.09
2022-12-10T21:03:46.127Z,64.65
2022-12-10T21:06:19.855Z,64.72
2022-12-10T21:08:46.481Z,65.34
2022-12-10T21:11:13.004Z,65.07
2022-12-10T21:13:39.430Z,65.22
2022-12-10T21:16:08.189Z,64.55
2022-12-10T21:18:34.711Z,64.57
2022-12-10T21:21:01.570Z,63.86
2022-12-10T21:23:29.349Z,64.26
2022-12-10T21:25:56.393Z,63.97
2022-12-10T21:28:23.603Z,63.81
2022-12-10T21:30:50.224Z,63.91
2022-12-10T21:33:19.414Z,63.05
2022-12-10T21:35:47.271Z,63.44
2022-12-10T21:38:14.183Z,63.19
2022-12-10T21:40:42.266Z,62.54
2022-12-10T21:43:18.334Z,62.78
2022-12-10T21:45:50.994Z,63.12
2022-12-10T21:48:23.557Z,62.87
2022-12-10T21:50:57.963Z,63.55
2022-12-10T21:53:24.422Z,63.14
2022-12-10T21:55:50.843Z,62.92
2022-12-10T21:58:17.304Z,62.85
2022-12-10T22:00:43.784Z,63.59
2022-12-10T22:03:10.478Z,62.87
2022-12-10T22:05:42.939Z,62.59
2022-12-10T22:08:09.481Z,62.62
2022-12-10T22:10:36.064Z,62.59
2022-12-10T22:13:02.522Z,62.54
2022-12-10T22:15:28.993Z,62.42
2022-12-10T22:17:55.613Z,62.26
2022-12-10T22:20:22.113Z,61.87
2022-12-10T22:22:48.754Z,61.58
2022-12-10T22:25:15.235Z,61.37
2022-12-10T22:27:42.110Z,61.54
2022-12-10T22:30:09.526Z,61.38
2022-12-10T22:32:36.132Z,62.65
2022-12-10T22:35:02.927Z,62.55
2022-12-10T22:37:29.459Z,62.52
2022-12-10T22:39:56.102Z,62.48
2022-12-10T22:42:22.650Z,61.62
2022-12-10T22:44:49.108Z,61.82
2022-12-10T22:47:15.581Z,62.65
2022-12-10T22:49:42.005Z,61.90
2022-12-10T22:52:08.471Z,62.40
2022-12-10T22:54:35.037Z,61.84
2022-12-10T22:57:01.431Z,61.56
2022-12-10T22:59:28.187Z,62.00
2022-12-10T23:01:54.712Z,61.99
2022-12-10T23:04:21.402Z,62.38
2022-12-10T23:06:47.894Z,62.87
2022-12-10T23:09:14.337Z,62.42
2022-12-10T23:12:01.078Z,62.48
2022-12-10T23:14:27.909Z,61.87
2022-12-10T23:16:54.395Z,61.22
2022-12-10T23:19:20.828Z,61.41
2022-12-10T23:21:47.307Z,61.97
2022-12-10T23:24:13.761Z,61.60
2022-12-10T23:26:44.151Z,62.14
2022-12-10T23:29:11.532Z,62.99
2022-12-10T23:31:38.092Z,62.19
2022-12-10T23:34:04.615Z,62.01
2022-12-10T23:36:31.052Z,62.26
2022-12-10T23:38:57.564Z,61.25
2022-12-10T23:41:24.040Z,61.82
2022-12-10T23:43:55.652Z,61.16
2022-12-10T23:46:23.938Z,61.89
2022-12-10T23:48:50.426Z,61.13
2022-12-10T23:51:16.846Z,61.52
2022-12-10T23:53:43.312Z,62.02
2022-12-10T23:56:18.932Z,61.92
2022-12-10T23:58:46.802Z,62.49
